createdAt,value
2017-06-17T00:00:39.091Z,18.90
2017-06-17T00:03:05.276Z,18.90
2017-06-17T00:05:31.475Z,18.90
2017-06-17T00:07:57.670Z,18.90
2017-06-17T00:10:24.011Z,18.90
2017-06-17T00:12:50.379Z,18.90
2017-06-17T00:15:17.309Z,18.90
2017-06-17T00:17:43.504Z,18.80
2017-06-17T00:20:09.718Z,18.90
2017-06-17T00:22:35.895Z,19.20
2017-06-17T00:25:02.107Z,18.80
2017-06-17T00:27:29.065Z,18.80
2017-06-17T00:29:56.087Z,18.70
2017-06-17T00:32:22.288Z,18.70
2017-06-17T00:34:48.503Z,18.70
2017-06-17T00:37:14.665Z,18.70
2017-06-17T00:39:43.482Z,18.70
2017-06-17T00:42:10.915Z,18.70
2017-06-17T00:44:37.131Z,18.70
2017-06-17T00:47:03.374Z,18.70
2017-06-17T00:49:31.187Z,18.60
2017-06-17T00:51:58.095Z,18.60
2017-06-17T00:54:24.587Z,18.60
2017-06-17T00:56:50.807Z,18.60
2017-06-17T00:59:17.898Z,18.50
2017-06-17T01:01:44.174Z,18.50
2017-06-17T01:04:11.242Z,18.50
2017-06-17T01:06:37.433Z,18.50
2017-06-17T01:09:03.652Z,18.40
2017-06-17T01:11:29.921Z,18.50
2017-06-17T01:13:57.422Z,18.50
2017-06-17T01:16:23.585Z,18.50
2017-06-17T01:18:50.118Z,18.40
2017-06-17T01:21:16.298Z,18.40
2017-06-17T01:23:42.549Z,18.40
2017-06-17T01:26:08.846Z,18.30
2017-06-17T01:28:35.115Z,18.30
2017-06-17T01:31:01.289Z,18.10
2017-06-17T01:33:28.347Z,18.10
2017-06-17T01:35:54.727Z,18.10
2017-06-17T01:38:20.909Z,18.00
2017-06-17T01:40:48.299Z,18.00
2017-06-17T01:43:14.454Z,17.90
2017-06-17T01:45:40.663Z,17.80
2017-06-17T01:48:06.879Z,17.80
2017-06-17T01:50:33.063Z,17.80
2017-06-17T01:53:00.050Z,17.90
2017-06-17T01:55:26.250Z,17.90
2017-06-17T01:57:52.522Z,17.60
2017-06-17T02:00:18.698Z,17.50
2017-06-17T02:02:45.638Z,17.50
2017-06-17T02:05:12.544Z,17.50
2017-06-17T02:07:38.685Z,17.60
2017-06-17T02:10:04.902Z,17.60
2017-06-17T02:12:31.079Z,17.70
2017-06-17T02:14:57.226Z,17.70
2017-06-17T02:17:23.454Z,17.70
2017-06-17T02:19:49.630Z,17.70
2017-06-17T02:22:15.798Z,17.60
2017-06-17T02:24:41.978Z,17.30
2017-06-17T02:27:08.183Z,17.30
2017-06-17T02:29:34.387Z,17.30
2017-06-17T02:32:00.567Z,17.40
2017-06-17T02:34:26.740Z,17.50
2017-06-17T02:36:52.953Z,17.60
2017-06-17T02:39:19.836Z,17.70
2017-06-17T02:41:45.986Z,17.60
2017-06-17T02:44:12.162Z,17.60
2017-06-17T02:46:38.352Z,17.60
2017-06-17T02:49:04.563Z,17.50
2017-06-17T02:51:30.736Z,17.50
2017-06-17T02:53:56.907Z,17.50
2017-06-17T02:56:23.085Z,17.60
2017-06-17T02:58:50.023Z,17.60
2017-06-17T03:01:16.927Z,17.60
2017-06-17T03:03:43.105Z,17.60
2017-06-17T03:06:10.042Z,17.60
2017-06-17T03:08:36.199Z,17.50
2017-06-17T03:11:02.411Z,17.30
2017-06-17T03:13:29.363Z,17.10
2017-06-17T03:15:56.281Z,17.00
2017-06-17T03:18:22.429Z,17.00
2017-06-17T03:20:49.350Z,17.10
2017-06-17T03:23:15.555Z,17.10
2017-06-17T03:25:41.701Z,17.10
2017-06-17T03:28:07.846Z,17.20
2017-06-17T03:30:34.051Z,17.10
2017-06-17T03:33:00.203Z,17.10
2017-06-17T03:35:26.397Z,17.10
2017-06-17T03:37:52.546Z,17.10
2017-06-17T03:40:18.707Z,17.10
2017-06-17T03:42:44.910Z,17.00
2017-06-17T03:45:11.459Z,17.10
2017-06-17T03:47:38.382Z,17.10
2017-06-17T03:50:05.583Z,17.10
2017-06-17T03:52:31.742Z,17.00
2017-06-17T03:54:57.897Z,17.00
2017-06-17T03:57:24.057Z,16.90
2017-06-17T03:59:50.254Z,16.90
2017-06-17T04:02:16.446Z,16.80
2017-06-17T04:04:42.627Z,16.80
2017-06-17T04:07:09.859Z,16.40
2017-06-17T04:09:36.088Z,16.40
2017-06-17T04:12:02.258Z,16.50
2017-06-17T04:14:28.462Z,16.60
2017-06-17T04:16:55.347Z,16.80
2017-06-17T04:19:21.549Z,16.80
2017-06-17T04:21:47.736Z,16.80
2017-06-17T04:24:14.651Z,17.30
2017-06-17T04:26:40.846Z,17.30
2017-06-17T04:29:07.063Z,17.80
2017-06-17T04:31:33.968Z,18.00
2017-06-17T04:34:00.522Z,18.10
2017-06-17T04:36:26.696Z,18.20
2017-06-17T04:38:52.930Z,18.20
2017-06-17T04:41:19.163Z,18.20
2017-06-17T04:43:45.342Z,18.10
2017-06-17T04:46:11.535Z,18.60
2017-06-17T04:48:37.702Z,18.60
2017-06-17T04:51:04.602Z,18.70
2017-06-17T04:53:30.786Z,18.80
2017-06-17T04:55:57.698Z,18.70
2017-06-17T04:58:23.895Z,18.70
2017-06-17T05:00:50.110Z,18.80
2017-06-17T05:03:16.245Z,19.00
2017-06-17T05:06:00.433Z,19.20
2017-06-17T05:08:27.010Z,19.20
2017-06-17T05:10:53.919Z,19.30
2017-06-17T05:13:20.115Z,19.30
2017-06-17T05:15:46.245Z,19.40
2017-06-17T05:18:12.423Z,19.50
2017-06-17T05:20:39.371Z,19.50
2017-06-17T05:23:06.256Z,19.50
2017-06-17T05:25:32.435Z,19.50
2017-06-17T05:27:58.622Z,19.90
2017-06-17T05:30:24.814Z,20.00
2017-06-17T05:32:51.715Z,20.30
2017-06-17T05:35:17.961Z,20.30
2017-06-17T05:37:44.140Z,20.50
2017-06-17T05:40:10.294Z,20.50
2017-06-17T05:42:36.495Z,20.50
2017-06-17T05:45:02.664Z,20.70
2017-06-17T05:47:28.813Z,21.00
2017-06-17T05:49:55.737Z,20.80
2017-06-17T05:52:21.930Z,20.70
2017-06-17T05:54:48.110Z,20.60
2017-06-17T05:57:15.052Z,20.20
2017-06-17T05:59:41.227Z,20.20
2017-06-17T06:02:07.445Z,20.00
2017-06-17T06:04:33.645Z,19.70
2017-06-17T06:07:00.570Z,19.10
2017-06-17T06:09:26.757Z,19.10
2017-06-17T06:11:52.950Z,19.00
2017-06-17T06:14:19.869Z,19.00
2017-06-17T06:16:46.071Z,18.90
2017-06-17T06:19:12.247Z,19.00
2017-06-17T06:21:39.182Z,19.00
2017-06-17T06:24:05.389Z,18.90
2017-06-17T06:26:31.535Z,18.90
2017-06-17T06:28:57.679Z,18.90
2017-06-17T06:31:24.590Z,18.90
2017-06-17T06:33:50.780Z,18.90
2017-06-17T06:36:16.974Z,18.80
2017-06-17T06:38:43.924Z,18.80
2017-06-17T06:41:10.862Z,18.80
2017-06-17T06:43:37.063Z,18.80
2017-06-17T06:46:03.234Z,18.90
2017-06-17T06:48:30.146Z,18.90
2017-06-17T06:50:56.379Z,18.90
2017-06-17T06:53:22.525Z,18.90
2017-06-17T06:55:49.500Z,19.10
2017-06-17T06:58:15.667Z,19.10
2017-06-17T07:00:41.830Z,19.10
2017-06-17T07:03:08.729Z,19.10
2017-06-17T07:05:34.890Z,19.00
2017-06-17T07:08:01.093Z,19.20
2017-06-17T07:10:27.285Z,19.40
2017-06-17T07:12:53.451Z,19.30
2017-06-17T07:15:19.654Z,19.40
2017-06-17T07:17:45.850Z,19.40
2017-06-17T07:20:12.822Z,19.80
2017-06-17T07:22:38.966Z,19.80
2017-06-17T07:25:05.156Z,19.90
2017-06-17T07:27:32.121Z,20.10
2017-06-17T07:29:58.318Z,20.10
2017-06-17T07:32:25.323Z,20.40
2017-06-17T07:34:51.505Z,20.70
2017-06-17T07:37:18.432Z,20.90
2017-06-17T07:39:44.616Z,20.90
2017-06-17T07:42:10.807Z,21.30
2017-06-17T07:44:36.993Z,23.50
2017-06-17T07:47:03.206Z,23.70
2017-06-17T07:49:29.384Z,23.70
2017-06-17T07:51:56.327Z,22.80
2017-06-17T07:54:23.264Z,22.20
2017-06-17T07:56:50.196Z,21.90
2017-06-17T07:59:16.399Z,21.90
2017-06-17T08:01:42.580Z,21.80
2017-06-17T08:04:09.540Z,21.70
2017-06-17T08:06:35.726Z,21.70
2017-06-17T08:09:01.931Z,21.70
2017-06-17T08:11:28.148Z,21.90
2017-06-17T08:13:54.321Z,22.10
2017-06-17T08:16:20.491Z,22.10
2017-06-17T08:18:46.711Z,22.30
2017-06-17T08:21:12.928Z,22.30
2017-06-17T08:23:39.828Z,22.50
2017-06-17T08:26:06.024Z,22.50
2017-06-17T08:28:32.218Z,22.60
2017-06-17T08:30:59.147Z,22.60
2017-06-17T08:33:25.355Z,22.60
2017-06-17T08:35:51.544Z,22.60
2017-06-17T08:38:17.755Z,22.40
2017-06-17T08:40:44.666Z,22.10
2017-06-17T08:43:10.893Z,22.00
2017-06-17T08:45:38.483Z,21.80
2017-06-17T08:48:05.429Z,21.70
2017-06-17T08:50:32.436Z,21.60
2017-06-17T08:53:13.566Z,21.60
2017-06-17T08:55:40.507Z,21.80
2017-06-17T08:58:07.615Z,21.70
2017-06-17T09:00:35.252Z,21.70
2017-06-17T09:03:02.129Z,21.80
2017-06-17T09:05:28.442Z,21.70
2017-06-17T09:07:54.693Z,21.70
2017-06-17T09:10:20.917Z,21.90
2017-06-17T09:12:47.114Z,22.10
2017-06-17T09:15:13.921Z,22.40
2017-06-17T09:17:40.129Z,22.50
2017-06-17T09:20:06.395Z,22.50
2017-06-17T09:22:32.625Z,22.50
2017-06-17T09:25:00.370Z,22.50
2017-06-17T09:27:27.291Z,22.20
2017-06-17T09:29:53.481Z,22.20
2017-06-17T09:32:19.931Z,22.10
2017-06-17T09:34:50.409Z,22.20
2017-06-17T09:37:17.326Z,22.20
2017-06-17T09:39:43.519Z,22.30
2017-06-17T09:42:10.236Z,22.30
2017-06-17T09:44:36.398Z,22.40
2017-06-17T09:47:02.599Z,22.60
2017-06-17T09:49:28.958Z,22.60
2017-06-17T09:51:55.184Z,23.00
2017-06-17T09:54:21.425Z,22.60
2017-06-17T09:56:47.586Z,22.60
2017-06-17T09:59:13.782Z,22.60
2017-06-17T10:01:40.004Z,22.60
2017-06-17T10:04:06.196Z,22.60
2017-06-17T10:06:32.411Z,22.40
2017-06-17T10:09:00.444Z,22.20
2017-06-17T10:11:26.655Z,22.20
2017-06-17T10:13:52.870Z,22.40
2017-06-17T10:16:19.054Z,22.50
2017-06-17T10:18:45.221Z,22.50
2017-06-17T10:21:11.893Z,22.60
2017-06-17T10:23:38.119Z,22.60
2017-06-17T10:26:04.289Z,22.60
2017-06-17T10:28:31.226Z,22.00
2017-06-17T10:30:58.128Z,21.80
2017-06-17T10:33:24.307Z,21.90
2017-06-17T10:35:51.246Z,21.60
2017-06-17T10:38:17.429Z,21.60
2017-06-17T10:40:43.655Z,21.50
2017-06-17T10:43:09.778Z,21.20
2017-06-17T10:45:35.955Z,21.30
2017-06-17T10:48:02.163Z,21.20
2017-06-17T10:50:28.348Z,21.40
2017-06-17T10:52:54.551Z,21.10
2017-06-17T10:55:21.572Z,20.90
2017-06-17T10:57:47.783Z,20.90
2017-06-17T11:00:14.008Z,20.80
2017-06-17T11:02:40.186Z,20.90
2017-06-17T11:05:07.068Z,21.00
2017-06-17T11:07:33.336Z,21.10
2017-06-17T11:09:59.566Z,21.10
2017-06-17T11:12:25.793Z,21.10
2017-06-17T11:14:51.980Z,21.00
2017-06-17T11:17:18.160Z,21.00
2017-06-17T11:19:44.341Z,21.00
2017-06-17T11:22:10.529Z,21.10
2017-06-17T11:24:37.483Z,21.10
2017-06-17T11:27:04.437Z,21.20
2017-06-17T11:29:30.631Z,21.20
2017-06-17T11:31:56.832Z,21.20
2017-06-17T11:34:23.044Z,21.30
2017-06-17T11:36:49.239Z,21.40
2017-06-17T11:39:16.241Z,21.70
2017-06-17T11:41:43.255Z,21.70
2017-06-17T11:44:09.567Z,21.80
2017-06-17T11:46:36.565Z,22.10
2017-06-17T11:49:02.773Z,22.20
2017-06-17T11:51:28.965Z,23.20
2017-06-17T11:53:55.916Z,22.60
2017-06-17T11:56:22.111Z,22.60
2017-06-17T11:58:48.332Z,22.80
2017-06-17T12:01:14.546Z,22.80
2017-06-17T12:03:40.754Z,23.00
2017-06-17T12:06:06.954Z,22.90
2017-06-17T12:08:33.919Z,23.00
2017-06-17T12:11:00.107Z,23.00
2017-06-17T12:13:26.293Z,23.10
2017-06-17T12:15:52.519Z,23.00
2017-06-17T12:18:18.797Z,22.80
2017-06-17T12:20:45.052Z,22.60
2017-06-17T12:23:12.100Z,22.70
2017-06-17T12:25:39.072Z,22.80
2017-06-17T12:28:05.257Z,22.90
2017-06-17T12:30:31.491Z,22.90
2017-06-17T12:32:58.426Z,22.90
2017-06-17T12:35:24.593Z,22.90
2017-06-17T12:37:50.798Z,23.00
2017-06-17T12:40:17.784Z,22.90
2017-06-17T12:42:44.003Z,22.60
2017-06-17T12:45:10.199Z,22.60
2017-06-17T12:47:38.623Z,22.10
2017-06-17T12:50:05.014Z,22.10
2017-06-17T12:52:34.426Z,22.00
2017-06-17T12:55:01.376Z,22.00
2017-06-17T12:57:27.581Z,22.00
2017-06-17T12:59:53.839Z,22.00
2017-06-17T13:02:20.026Z,22.00
2017-06-17T13:04:46.224Z,22.00
2017-06-17T13:07:12.457Z,22.00
2017-06-17T13:09:45.708Z,22.00
2017-06-17T13:12:12.765Z,22.10
2017-06-17T13:14:47.235Z,22.20
2017-06-17T13:17:13.550Z,22.20
2017-06-17T13:19:39.825Z,22.20
2017-06-17T13:22:09.876Z,22.30
2017-06-17T13:24:36.260Z,22.30
2017-06-17T13:27:02.483Z,22.30
2017-06-17T13:29:28.682Z,22.30
2017-06-17T13:31:54.855Z,22.40
2017-06-17T13:34:21.062Z,22.50
2017-06-17T13:36:48.498Z,22.50
2017-06-17T13:39:14.714Z,22.60
2017-06-17T13:41:40.948Z,22.60
2017-06-17T13:44:07.159Z,22.70
2017-06-17T13:46:33.364Z,22.70
2017-06-17T13:49:00.286Z,22.80
2017-06-17T13:51:26.502Z,22.80
2017-06-17T13:53:52.680Z,22.80
2017-06-17T13:56:20.591Z,22.70
2017-06-17T13:58:47.206Z,22.70
2017-06-17T14:01:13.385Z,22.60
2017-06-17T14:03:39.570Z,22.50
2017-06-17T14:06:05.913Z,22.50
2017-06-17T14:08:32.230Z,22.30
2017-06-17T14:10:58.386Z,22.30
2017-06-17T14:13:24.654Z,22.20
2017-06-17T14:15:51.615Z,22.30
2017-06-17T14:18:17.776Z,22.20
2017-06-17T14:20:44.054Z,22.30
2017-06-17T14:23:11.003Z,22.50
2017-06-17T14:25:38.799Z,22.50
2017-06-17T14:28:05.012Z,22.60
2017-06-17T14:30:31.184Z,22.60
2017-06-17T14:32:57.399Z,22.60
2017-06-17T14:35:23.603Z,22.60
2017-06-17T14:37:49.788Z,22.60
2017-06-17T14:40:16.010Z,22.60
2017-06-17T14:42:42.206Z,22.60
2017-06-17T14:45:08.389Z,22.60
2017-06-17T14:47:35.367Z,22.60
2017-06-17T14:50:01.569Z,22.60
2017-06-17T14:52:28.518Z,22.70
2017-06-17T14:54:55.447Z,22.80
2017-06-17T14:57:21.668Z,22.80
2017-06-17T14:59:47.903Z,22.80
2017-06-17T15:02:14.074Z,22.90
2017-06-17T15:04:40.294Z,22.80
2017-06-17T15:07:06.487Z,22.80
2017-06-17T15:09:32.795Z,22.80
2017-06-17T15:11:59.010Z,22.80
2017-06-17T15:14:25.194Z,22.80
2017-06-17T15:16:52.099Z,22.70
2017-06-17T15:19:18.372Z,22.80
2017-06-17T15:22:00.213Z,22.80
2017-06-17T15:24:26.426Z,22.70
2017-06-17T15:26:52.651Z,22.80
2017-06-17T15:29:18.838Z,22.80
2017-06-17T15:31:45.046Z,22.80
2017-06-17T15:34:11.182Z,22.80
2017-06-17T15:36:37.346Z,22.90
2017-06-17T15:39:03.587Z,22.90
2017-06-17T15:41:29.792Z,22.90
2017-06-17T15:43:56.727Z,23.00
2017-06-17T15:46:22.934Z,23.00
2017-06-17T15:48:49.100Z,22.90
2017-06-17T15:51:16.062Z,22.90
2017-06-17T15:53:42.266Z,22.80
2017-06-17T15:56:09.244Z,22.90
2017-06-17T15:58:35.406Z,23.50
2017-06-17T16:01:01.621Z,23.00
2017-06-17T16:03:42.706Z,23.00
2017-06-17T16:06:08.913Z,23.00
2017-06-17T16:08:35.099Z,23.10
2017-06-17T16:11:02.098Z,23.30
2017-06-17T16:13:28.280Z,23.30
2017-06-17T16:15:55.234Z,23.30
2017-06-17T16:18:22.224Z,23.20
2017-06-17T16:20:48.447Z,23.60
2017-06-17T16:23:14.627Z,23.10
2017-06-17T16:25:41.568Z,23.10
2017-06-17T16:28:08.513Z,23.00
2017-06-17T16:30:35.458Z,23.10
2017-06-17T16:33:02.437Z,23.00
2017-06-17T16:35:28.608Z,23.00
2017-06-17T16:37:54.811Z,22.90
2017-06-17T16:40:20.991Z,22.70
2017-06-17T16:42:47.927Z,22.70
2017-06-17T16:45:14.132Z,22.70
2017-06-17T16:47:40.347Z,22.70
2017-06-17T16:50:06.572Z,22.70
2017-06-17T16:52:32.795Z,22.70
2017-06-17T16:54:58.991Z,22.70
2017-06-17T16:57:25.978Z,22.60
2017-06-17T16:59:52.232Z,22.60
2017-06-17T17:02:18.810Z,22.60
2017-06-17T17:04:45.772Z,22.70
2017-06-17T17:07:11.970Z,22.60
2017-06-17T17:09:38.887Z,22.60
2017-06-17T17:12:05.082Z,22.50
2017-06-17T17:14:31.257Z,22.40
2017-06-17T17:16:57.464Z,22.30
2017-06-17T17:19:23.649Z,22.20
2017-06-17T17:21:49.954Z,22.20
2017-06-17T17:24:16.898Z,22.20
2017-06-17T17:26:43.859Z,22.20
2017-06-17T17:29:14.071Z,22.10
2017-06-17T17:31:41.035Z,22.10
2017-06-17T17:34:07.210Z,22.10
2017-06-17T17:36:33.456Z,22.20
2017-06-17T17:39:00.052Z,22.20
2017-06-17T17:41:26.250Z,22.20
2017-06-17T17:43:54.087Z,22.10
2017-06-17T17:46:36.129Z,22.10
2017-06-17T17:49:04.096Z,22.10
2017-06-17T17:51:30.267Z,22.00
2017-06-17T17:53:56.476Z,22.10
2017-06-17T17:56:22.654Z,22.10
2017-06-17T17:58:49.759Z,22.10
2017-06-17T18:01:15.968Z,22.00
2017-06-17T18:03:42.169Z,22.00
2017-06-17T18:06:09.139Z,22.00
2017-06-17T18:08:35.306Z,22.00
2017-06-17T18:11:01.473Z,22.00
2017-06-17T18:13:27.716Z,22.00
2017-06-17T18:15:53.947Z,22.00
2017-06-17T18:18:20.135Z,22.00
2017-06-17T18:20:46.338Z,21.90
2017-06-17T18:23:12.560Z,21.90
2017-06-17T18:25:38.757Z,21.80
2017-06-17T18:28:05.734Z,21.80
2017-06-17T18:30:31.962Z,21.80
2017-06-17T18:32:58.127Z,21.70
2017-06-17T18:35:24.323Z,21.70
2017-06-17T18:37:50.502Z,21.70
2017-06-17T18:40:18.281Z,21.70
2017-06-17T18:42:45.221Z,21.70
2017-06-17T18:45:12.162Z,21.70
2017-06-17T18:47:39.129Z,21.70
2017-06-17T18:50:05.315Z,21.70
2017-06-17T18:52:31.564Z,21.60
2017-06-17T18:54:58.533Z,21.60
2017-06-17T18:57:24.770Z,21.60
2017-06-17T18:59:50.973Z,21.60
2017-06-17T19:02:17.955Z,21.50
2017-06-17T19:04:44.165Z,21.60
2017-06-17T19:07:10.411Z,21.50
2017-06-17T19:09:37.408Z,21.70
2017-06-17T19:12:03.662Z,21.50
2017-06-17T19:14:30.641Z,21.40
2017-06-17T19:16:56.807Z,21.40
2017-06-17T19:19:22.987Z,21.40
2017-06-17T19:21:49.188Z,21.40
2017-06-17T19:24:16.115Z,21.30
2017-06-17T19:26:42.322Z,21.30
2017-06-17T19:29:08.587Z,21.30
2017-06-17T19:31:35.512Z,21.20
2017-06-17T19:34:02.046Z,21.20
2017-06-17T19:36:28.356Z,21.20
2017-06-17T19:38:54.577Z,21.20
2017-06-17T19:41:20.779Z,21.20
2017-06-17T19:43:47.292Z,21.20
2017-06-17T19:46:14.435Z,21.20
2017-06-17T19:48:41.520Z,21.20
2017-06-17T19:51:07.873Z,21.20
2017-06-17T19:53:34.070Z,21.20
2017-06-17T19:56:00.394Z,21.10
2017-06-17T19:58:26.688Z,21.00
2017-06-17T20:00:52.987Z,21.30
2017-06-17T20:03:19.330Z,21.10
2017-06-17T20:05:45.672Z,21.10
2017-06-17T20:08:11.958Z,21.10
2017-06-17T20:10:38.181Z,21.10
2017-06-17T20:13:04.422Z,21.10
2017-06-17T20:15:31.539Z,21.20
2017-06-17T20:17:59.542Z,21.10
2017-06-17T20:20:25.935Z,21.10
2017-06-17T20:22:52.417Z,21.20
2017-06-17T20:25:18.869Z,21.10
2017-06-17T20:27:45.253Z,21.20
2017-06-17T20:30:12.408Z,21.10
2017-06-17T20:32:39.656Z,21.10
2017-06-17T20:35:06.771Z,21.10
2017-06-17T20:37:32.964Z,21.10
2017-06-17T20:39:59.143Z,21.10
2017-06-17T20:42:25.546Z,21.10
2017-06-17T20:44:51.871Z,21.10
2017-06-17T20:47:18.161Z,21.10
2017-06-17T20:49:46.083Z,21.00
2017-06-17T20:52:12.327Z,21.00
2017-06-17T20:54:38.769Z,21.00
2017-06-17T20:57:05.775Z,21.00
2017-06-17T20:59:32.147Z,21.00
2017-06-17T21:01:58.482Z,21.00
2017-06-17T21:04:24.799Z,20.90
2017-06-17T21:06:51.138Z,20.90
2017-06-17T21:09:17.322Z,20.90
2017-06-17T21:11:46.191Z,20.80
2017-06-17T21:14:12.427Z,20.80
2017-06-17T21:16:38.631Z,20.80
2017-06-17T21:19:05.582Z,20.80
2017-06-17T21:21:32.549Z,20.70
2017-06-17T21:23:58.792Z,20.70
2017-06-17T21:26:24.991Z,20.70
2017-06-17T21:28:51.979Z,20.60
2017-06-17T21:31:18.169Z,20.60
2017-06-17T21:33:44.343Z,20.70
2017-06-17T21:36:10.617Z,20.70
2017-06-17T21:38:37.522Z,20.60
2017-06-17T21:41:03.696Z,20.60
2017-06-17T21:43:30.887Z,20.50
2017-06-17T21:45:57.095Z,20.50
2017-06-17T21:48:23.335Z,20.50
2017-06-17T21:50:49.546Z,20.60
2017-06-17T21:53:15.747Z,20.60
2017-06-17T21:55:41.922Z,20.60
2017-06-17T21:58:08.146Z,20.70
2017-06-17T22:00:34.411Z,20.70
2017-06-17T22:03:00.632Z,20.70
2017-06-17T22:05:26.806Z,20.70
2017-06-17T22:07:53.791Z,20.70
2017-06-17T22:10:19.964Z,21.10
2017-06-17T22:12:46.147Z,20.70
2017-06-17T22:15:12.411Z,20.60
2017-06-17T22:17:38.584Z,20.50
2017-06-17T22:20:04.767Z,20.50
2017-06-17T22:22:30.961Z,20.50
2017-06-17T22:24:57.206Z,20.50
2017-06-17T22:27:23.378Z,20.40
2017-06-17T22:29:50.626Z,20.40
2017-06-17T22:32:17.546Z,20.40
2017-06-17T22:34:43.753Z,20.50
2017-06-17T22:37:10.015Z,20.50
2017-06-17T22:39:36.306Z,20.50
2017-06-17T22:42:02.539Z,20.50
2017-06-17T22:44:28.732Z,20.60
2017-06-17T22:46:55.686Z,20.60
2017-06-17T22:49:21.839Z,20.60
2017-06-17T22:51:48.025Z,20.60
2017-06-17T22:54:14.977Z,20.60
2017-06-17T22:56:41.906Z,20.50
2017-06-17T22:59:08.868Z,20.50
2017-06-17T23:01:37.504Z,20.40
2017-06-17T23:04:03.775Z,20.40
2017-06-17T23:06:30.722Z,20.40
2017-06-17T23:08:57.847Z,20.30
2017-06-17T23:11:24.200Z,20.30
2017-06-17T23:13:51.142Z,20.30
2017-06-17T23:16:18.066Z,20.30
2017-06-17T23:18:44.419Z,20.30
2017-06-17T23:21:11.378Z,20.30
2017-06-17T23:23:38.437Z,20.30
2017-06-17T23:26:04.752Z,20.40
2017-06-17T23:28:31.857Z,20.30
2017-06-17T23:30:59.248Z,20.30
2017-06-17T23:33:27.024Z,20.30
2017-06-17T23:35:53.972Z,20.30
2017-06-17T23:38:20.928Z,20.30
2017-06-17T23:40:48.116Z,20.30
2017-06-17T23:43:15.243Z,20.30
2017-06-17T23:45:41.448Z,20.30
2017-06-17T23:48:08.341Z,20.30
2017-06-17T23:50:34.602Z,20.30
2017-06-17T23:53:00.770Z,20.30
2017-06-17T23:55:26.948Z,20.40
2017-06-17T23:57:53.248Z,20.40
